Kohju — H3XI — position and weather

sailwx.info

Track history (hours):
 
Tides and Currents Weather Stations Pressure Air Temp Water Temp Dewpoint Dewpoint Depression Visibility Wind Speed Wind Dir Waves Ship Positions

Kohju

Last reported at 2017-Mar-12 14:30 UTC. Time now 2017-Mar-30 00:50 UTC.
Position N 08°07' W 014°26'.
Warning: this ship's position is 17 days out of date.

Length 289 m; draft 18.2 m.

Type: Cargo ship. MMSI: 357349000.

Date/timePositionNaut miles runAvg speedWind from/ knotsBaromVisibWave heightAir tempDewpointWater temp
2017-Mar-12 14:30N 08°07' W 014°26'1111.6
2017-Mar-12 13:33N 08°17' W 014°30'1211.6
2017-Mar-12 12:33N 08°28' W 014°34'1211.5
2017-Mar-12 11:33N 08°38' W 014°38'3511.6
2017-Mar-12 08:34N 09°11' W 014°50'1110.9
2017-Mar-12 07:33N 09°21' W 014°54'1010.4
2017-Mar-12 06:34N 09°31' W 014°58'9 9.3
2017-Mar-12 05:33N 09°40' W 014°59'10 9.7
2017-Mar-12 04:32N 09°50' W 014°56'1010.1
2017-Mar-12 03:33N 09°59' W 014°53'1111.1
2017-Mar-12 02:32N 10°10' W 014°50'11 2.6
2017-Mar-11 22:24N 10°20' W 014°47'0 0.2
2017-Mar-11 21:30N 10°20' W 014°47'0 0.0
2017-Mar-11 20:33N 10°20' W 014°47'0 0.0
2017-Mar-10 16:27N 10°20' W 014°47'0 0.0
2017-Mar-10 06:30N 10°20' W 014°47'0 0.0
2017-Mar-09 22:03N 10°20' W 014°47'1 1.1
2017-Mar-09 21:33N 10°20' W 014°47'3 3.3
2017-Mar-09 20:33N 10°24' W 014°47'5 4.8
2017-Mar-09 19:33N 10°28' W 014°46'3 2.1
2017-Mar-09 18:22N 10°31' W 014°45'0 0.0
2017-Mar-09 17:22N 10°31' W 014°45'0 0.0
2017-Mar-09 16:28N 10°31' W 014°45'0 0.1
2017-Mar-09 14:22N 10°31' W 014°45'0 0.3
2017-Mar-09 13:31N 10°30' W 014°45'0 0.0
2017-Mar-09 12:28N 10°30' W 014°45'0 0.0
2017-Mar-09 11:22N 10°30' W 014°45'0 0.0
2017-Mar-09 08:22N 10°31' W 014°45'0 0.0
2017-Mar-09 01:13N 10°31' W 014°45'0 0.1
2017-Mar-09 00:04N 10°30' W 014°45'0 0.0
2017-Mar-08 23:13N 10°30' W 014°45'0 0.0
2017-Mar-08 22:31N 10°30' W 014°45'0 0.1
2017-Mar-08 20:31N 10°31' W 014°45'  
Track history (hours):
 
Tides and Currents Weather Stations Pressure Air Temp Water Temp Dewpoint Dewpoint Depression Visibility Wind Speed Wind Dir Waves Ship Positions

Kohju

Last reported at 2017-Mar-12 14:30 UTC. Time now 2017-Mar-30 00:50 UTC.
Position N 08°07' W 014°26'.
Warning: this ship's position is 17 days out of date.

Length 289 m; draft 18.2 m.

Type: Cargo ship. MMSI: 357349000.

Date/timePositionNaut miles runAvg speedWind from/ knotsBaromVisibWave heightAir tempDewpointWater temp
2017-Mar-12 14:30N 08°07' W 014°26'1111.6
2017-Mar-12 13:33N 08°17' W 014°30'1211.6
2017-Mar-12 12:33N 08°28' W 014°34'1211.5
2017-Mar-12 11:33N 08°38' W 014°38'3511.6
2017-Mar-12 08:34N 09°11' W 014°50'1110.9
2017-Mar-12 07:33N 09°21' W 014°54'1010.4
2017-Mar-12 06:34N 09°31' W 014°58'9 9.3
2017-Mar-12 05:33N 09°40' W 014°59'10 9.7
2017-Mar-12 04:32N 09°50' W 014°56'1010.1
2017-Mar-12 03:33N 09°59' W 014°53'1111.1
2017-Mar-12 02:32N 10°10' W 014°50'11 2.6
2017-Mar-11 22:24N 10°20' W 014°47'0 0.2
2017-Mar-11 21:30N 10°20' W 014°47'0 0.0
2017-Mar-11 20:33N 10°20' W 014°47'0 0.0
2017-Mar-10 16:27N 10°20' W 014°47'0 0.0
2017-Mar-10 06:30N 10°20' W 014°47'0 0.0
2017-Mar-09 22:03N 10°20' W 014°47'1 1.1
2017-Mar-09 21:33N 10°20' W 014°47'3 3.3
2017-Mar-09 20:33N 10°24' W 014°47'5 4.8
2017-Mar-09 19:33N 10°28' W 014°46'3 2.1
2017-Mar-09 18:22N 10°31' W 014°45'0 0.0
2017-Mar-09 17:22N 10°31' W 014°45'0 0.0
2017-Mar-09 16:28N 10°31' W 014°45'0 0.1
2017-Mar-09 14:22N 10°31' W 014°45'0 0.3
2017-Mar-09 13:31N 10°30' W 014°45'0 0.0
2017-Mar-09 12:28N 10°30' W 014°45'0 0.0
2017-Mar-09 11:22N 10°30' W 014°45'0 0.0
2017-Mar-09 08:22N 10°31' W 014°45'0 0.0
2017-Mar-09 01:13N 10°31' W 014°45'0 0.1
2017-Mar-09 00:04N 10°30' W 014°45'0 0.0
2017-Mar-08 23:13N 10°30' W 014°45'0 0.0
2017-Mar-08 22:31N 10°30' W 014°45'0 0.1
2017-Mar-08 20:31N 10°31' W 014°45'  

Dump ship's entire track history